createdAt,value
2023-12-22T00:01:44.412Z,1.08
2023-12-22T00:04:18.625Z,1.05
2023-12-22T00:06:53.284Z,1.02
2023-12-22T00:09:26.661Z,1.01
2023-12-22T00:12:00.200Z,0.98
2023-12-22T00:14:33.654Z,0.98
2023-12-22T00:17:07.913Z,0.95
2023-12-22T00:19:41.895Z,0.91
2023-12-22T00:22:15.269Z,0.87
2023-12-22T00:24:48.978Z,0.85
2023-12-22T00:27:22.516Z,0.81
2023-12-22T00:29:56.345Z,0.82
2023-12-22T00:32:29.678Z,0.81
2023-12-22T00:35:03.543Z,0.81
2023-12-22T00:37:37.433Z,0.84
2023-12-22T00:42:54.591Z,0.97
2023-12-22T00:45:27.858Z,0.84
2023-12-22T00:48:03.827Z,0.82
2023-12-22T00:50:37.723Z,0.78
2023-12-22T00:53:11.212Z,0.74
2023-12-22T00:55:44.616Z,0.71
2023-12-22T00:58:18.499Z,0.69
2023-12-22T01:00:52.387Z,0.73
2023-12-22T01:03:26.137Z,0.74
2023-12-22T01:05:59.787Z,0.73
2023-12-22T01:08:33.512Z,0.73
2023-12-22T01:11:07.508Z,0.74
2023-12-22T01:13:41.071Z,0.74
2023-12-22T01:16:16.301Z,0.73
2023-12-22T01:18:50.055Z,0.74
2023-12-22T01:21:24.192Z,0.75
2023-12-22T01:23:57.997Z,0.77
2023-12-22T01:26:31.402Z,0.78
2023-12-22T01:29:05.004Z,0.81
2023-12-22T01:31:38.948Z,0.85
2023-12-22T01:34:12.875Z,0.85
2023-12-22T01:36:46.533Z,0.85
2023-12-22T01:39:20.849Z,0.80
2023-12-22T01:41:54.524Z,0.74
2023-12-22T01:44:27.977Z,0.69
2023-12-22T01:47:02.320Z,0.68
2023-12-22T01:49:35.944Z,0.68
2023-12-22T01:52:10.289Z,0.69
2023-12-22T01:54:44.036Z,0.69
2023-12-22T01:57:19.248Z,0.72
2023-12-22T01:59:53.901Z,0.77
2023-12-22T02:02:27.545Z,0.86
2023-12-22T02:16:41.167Z,1.16
2023-12-22T02:19:20.491Z,0.99
2023-12-22T02:22:10.331Z,0.93
2023-12-22T02:24:45.352Z,0.85
2023-12-22T02:27:25.386Z,0.80
2023-12-22T02:30:02.487Z,0.80
2023-12-22T02:32:40.054Z,0.80
2023-12-22T02:35:16.127Z,0.82
2023-12-22T02:37:51.372Z,0.87
2023-12-22T02:40:26.120Z,0.93
2023-12-22T02:42:59.545Z,1.00
2023-12-22T02:45:33.540Z,1.06
2023-12-22T02:48:08.935Z,1.05
2023-12-22T02:50:42.778Z,1.12
2023-12-22T02:53:16.352Z,1.13
2023-12-22T02:55:50.218Z,1.14
2023-12-22T02:58:23.958Z,1.17
2023-12-22T03:00:57.229Z,1.15
2023-12-22T03:03:31.156Z,1.13
2023-12-22T03:06:05.012Z,1.14
2023-12-22T03:08:38.719Z,1.18
2023-12-22T03:11:12.373Z,1.18
2023-12-22T03:13:46.036Z,1.17
2023-12-22T03:16:20.016Z,1.13
2023-12-22T03:18:53.674Z,1.12
2023-12-22T03:21:28.207Z,1.06
2023-12-22T03:24:01.801Z,1.06
2023-12-22T03:26:35.326Z,1.06
2023-12-22T03:29:08.933Z,1.05
2023-12-22T03:34:25.015Z,1.18
2023-12-22T03:36:58.618Z,1.05
2023-12-22T03:39:32.223Z,1.02
2023-12-22T03:42:06.623Z,1.02
2023-12-22T03:44:40.064Z,1.01
2023-12-22T03:47:13.548Z,1.03
2023-12-22T03:49:47.226Z,1.02
2023-12-22T03:52:21.409Z,1.02
2023-12-22T03:54:55.189Z,1.02
2023-12-22T03:57:29.435Z,0.98
2023-12-22T04:00:02.892Z,0.95
2023-12-22T04:02:36.770Z,0.94
2023-12-22T04:05:12.923Z,0.87
2023-12-22T04:07:46.796Z,0.85
2023-12-22T04:10:21.787Z,0.84
2023-12-22T04:12:55.393Z,0.79
2023-12-22T04:15:29.060Z,0.81
2023-12-22T04:18:02.930Z,0.80
2023-12-22T04:20:37.085Z,0.76
2023-12-22T04:23:10.555Z,0.77
2023-12-22T04:25:44.313Z,0.78
2023-12-22T04:28:18.091Z,0.79
2023-12-22T04:30:52.074Z,0.80
2023-12-22T04:33:25.795Z,0.82
2023-12-22T04:35:59.598Z,0.82
2023-12-22T04:38:32.990Z,0.87
2023-12-22T04:41:06.483Z,0.82
2023-12-22T04:43:40.062Z,0.78
2023-12-22T04:46:13.762Z,0.81
2023-12-22T04:48:47.192Z,0.73
2023-12-22T04:51:21.119Z,0.71
2023-12-22T04:53:54.972Z,0.72
2023-12-22T04:56:31.285Z,0.75
2023-12-22T04:59:04.916Z,0.75
2023-12-22T05:01:39.327Z,0.73
2023-12-22T05:04:13.067Z,0.72
2023-12-22T05:06:47.124Z,0.73
2023-12-22T05:09:20.674Z,0.68
2023-12-22T05:11:54.331Z,0.70
2023-12-22T05:14:28.170Z,0.69
2023-12-22T05:17:02.687Z,0.67
2023-12-22T05:19:36.320Z,0.72
2023-12-22T05:22:09.927Z,0.64
2023-12-22T05:24:43.598Z,0.63
2023-12-22T05:27:17.326Z,0.61
2023-12-22T05:29:51.106Z,0.60
2023-12-22T05:32:24.882Z,0.62
2023-12-22T05:35:00.145Z,0.64
2023-12-22T05:37:35.629Z,0.61
2023-12-22T05:40:13.310Z,0.63
2023-12-22T05:42:45.379Z,0.62
2023-12-22T05:45:19.689Z,0.63
2023-12-22T05:47:53.558Z,0.62
2023-12-22T05:50:27.572Z,0.59
2023-12-22T05:53:02.252Z,0.63
2023-12-22T05:55:35.882Z,0.59
2023-12-22T05:58:09.696Z,0.63
2023-12-22T06:00:43.966Z,0.68
2023-12-22T06:03:17.600Z,0.65
2023-12-22T06:05:51.451Z,0.63
2023-12-22T06:08:25.054Z,0.64
2023-12-22T06:10:58.648Z,0.64
2023-12-22T06:13:32.301Z,0.62
2023-12-22T06:16:06.451Z,0.68
2023-12-22T06:18:39.974Z,0.65
2023-12-22T06:21:13.809Z,0.64
2023-12-22T06:23:47.415Z,0.58
2023-12-22T06:26:21.265Z,0.54
2023-12-22T06:28:54.790Z,0.54
2023-12-22T06:31:28.609Z,0.49
2023-12-22T06:34:04.129Z,0.48
2023-12-22T06:36:38.063Z,0.51
2023-12-22T06:39:11.460Z,0.52
2023-12-22T06:41:45.156Z,0.55
2023-12-22T06:44:18.748Z,0.54
2023-12-22T06:46:52.557Z,0.55
2023-12-22T06:49:28.154Z,0.60
2023-12-22T06:52:02.739Z,0.62
2023-12-22T06:54:36.764Z,0.69
2023-12-22T06:57:12.292Z,0.69
2023-12-22T06:59:46.940Z,0.71
2023-12-22T07:02:23.556Z,0.74
2023-12-22T07:05:09.122Z,0.73
2023-12-22T07:07:42.945Z,0.84
2023-12-22T07:10:16.332Z,0.66
2023-12-22T07:12:50.255Z,0.75
2023-12-22T07:15:25.008Z,0.83
2023-12-22T07:17:58.902Z,0.85
2023-12-22T07:20:36.856Z,0.84
2023-12-22T07:23:12.477Z,0.89
2023-12-22T07:25:47.090Z,0.95
2023-12-22T07:28:20.942Z,0.94
2023-12-22T07:30:56.229Z,0.91
2023-12-22T07:33:30.011Z,0.95
2023-12-22T07:36:03.419Z,1.00
2023-12-22T07:38:40.772Z,0.99
2023-12-22T07:41:14.167Z,1.05
2023-12-22T07:43:48.450Z,1.03
2023-12-22T07:46:24.724Z,0.96
2023-12-22T07:48:58.761Z,1.02
2023-12-22T07:51:32.893Z,1.04
2023-12-22T07:54:07.591Z,1.08
2023-12-22T07:56:42.400Z,1.12
2023-12-22T07:59:23.697Z,1.30
2023-12-22T08:01:51.383Z,1.42
2023-12-22T08:04:24.921Z,1.50
2023-12-22T08:06:58.614Z,1.64
2023-12-22T08:09:32.304Z,1.79
2023-12-22T08:12:06.565Z,1.96
2023-12-22T08:14:40.158Z,1.96
2023-12-22T08:17:14.630Z,1.94
2023-12-22T08:19:49.567Z,1.84
2023-12-22T08:22:26.076Z,1.83
2023-12-22T08:24:58.834Z,2.05
2023-12-22T08:27:33.550Z,2.41
2023-12-22T08:30:09.140Z,2.74
2023-12-22T08:32:43.483Z,2.83
2023-12-22T08:35:17.866Z,2.81
2023-12-22T08:37:51.870Z,2.75
2023-12-22T08:40:28.228Z,2.69
2023-12-22T08:43:02.497Z,2.78
2023-12-22T08:45:36.960Z,2.80
2023-12-22T08:48:13.568Z,2.72
2023-12-22T08:50:47.248Z,2.81
2023-12-22T08:53:21.014Z,2.69
2023-12-22T08:55:54.750Z,2.54
2023-12-22T08:58:28.516Z,2.43
2023-12-22T09:01:02.298Z,2.28
2023-12-22T09:03:39.466Z,2.27
2023-12-22T09:08:49.175Z,2.44
2023-12-22T09:11:23.466Z,2.59
2023-12-22T09:13:57.234Z,2.78
2023-12-22T09:16:30.906Z,2.76
2023-12-22T09:19:04.942Z,2.92
2023-12-22T09:21:38.809Z,3.04
2023-12-22T09:24:13.541Z,3.18
2023-12-22T09:26:47.117Z,3.17
2023-12-22T09:29:22.520Z,3.19
2023-12-22T09:31:56.199Z,3.31
2023-12-22T09:34:30.988Z,3.13
2023-12-22T09:37:04.791Z,3.07
2023-12-22T09:39:38.882Z,3.06
2023-12-22T09:42:12.414Z,2.87
2023-12-22T09:44:49.701Z,2.77
2023-12-22T09:47:23.791Z,2.76
2023-12-22T09:49:58.410Z,2.66
2023-12-22T09:52:34.506Z,2.76
2023-12-22T09:55:11.214Z,3.03
2023-12-22T09:57:45.184Z,3.37
2023-12-22T10:00:20.944Z,3.68
2023-12-22T10:02:54.611Z,3.64
2023-12-22T10:05:28.167Z,3.28
2023-12-22T10:08:04.245Z,3.12
2023-12-22T10:10:39.761Z,2.91
2023-12-22T10:13:14.125Z,2.73
2023-12-22T10:15:48.740Z,2.71
2023-12-22T10:18:22.529Z,2.55
2023-12-22T10:20:56.328Z,2.48
2023-12-22T10:23:30.133Z,2.27
2023-12-22T10:26:12.600Z,2.22
2023-12-22T10:28:50.910Z,2.21
2023-12-22T10:31:25.146Z,2.14
2023-12-22T10:33:58.837Z,2.06
2023-12-22T10:36:32.332Z,2.03
2023-12-22T10:39:06.077Z,1.89
2023-12-22T10:41:39.613Z,1.76
2023-12-22T10:44:14.549Z,1.79
2023-12-22T10:46:49.531Z,1.73
2023-12-22T10:49:23.587Z,1.69
2023-12-22T10:51:57.610Z,1.61
2023-12-22T10:54:32.194Z,1.58
2023-12-22T10:57:06.855Z,1.56
2023-12-22T10:59:47.063Z,1.50
2023-12-22T11:02:21.042Z,1.42
2023-12-22T11:05:00.127Z,1.39
2023-12-22T11:07:39.270Z,1.40
2023-12-22T11:10:15.141Z,1.37
2023-12-22T11:12:51.259Z,1.28
2023-12-22T11:15:26.479Z,1.22
2023-12-22T11:18:02.437Z,1.17
2023-12-22T11:20:37.471Z,1.17
2023-12-22T11:23:13.144Z,1.28
2023-12-22T11:25:48.626Z,1.26
2023-12-22T11:28:23.936Z,1.26
2023-12-22T11:30:59.182Z,1.24
2023-12-22T11:33:37.000Z,1.27
2023-12-22T11:36:12.239Z,1.26
2023-12-22T11:38:47.877Z,1.17
2023-12-22T11:41:24.176Z,1.09
2023-12-22T11:43:59.126Z,1.08
2023-12-22T11:46:34.537Z,1.06
2023-12-22T11:49:08.675Z,1.00
2023-12-22T11:51:42.990Z,0.98
2023-12-22T11:55:01.782Z,0.90
2023-12-22T11:57:39.373Z,0.84
2023-12-22T12:00:23.610Z,0.64
2023-12-22T12:02:59.214Z,0.63
2023-12-22T12:05:33.333Z,0.57
2023-12-22T12:08:11.197Z,0.55
2023-12-22T12:10:57.633Z,0.52
2023-12-22T12:13:33.616Z,0.49
2023-12-22T12:16:09.198Z,0.44
2023-12-22T12:18:43.832Z,0.43
2023-12-22T12:21:19.043Z,0.44
2023-12-22T12:23:52.643Z,0.48
2023-12-22T12:26:28.084Z,0.39
2023-12-22T12:31:46.217Z,0.45
2023-12-22T12:34:22.355Z,0.32
2023-12-22T12:36:56.680Z,0.26
2023-12-22T12:39:35.164Z,0.24
2023-12-22T12:42:10.471Z,0.17
2023-12-22T12:44:45.014Z,0.16
2023-12-22T12:47:19.154Z,0.17
2023-12-22T12:50:00.899Z,0.22
2023-12-22T12:52:36.724Z,0.16
2023-12-22T12:55:11.854Z,0.10
2023-12-22T12:57:45.612Z,0.09
2023-12-22T13:00:21.611Z,0.08
2023-12-22T13:02:57.409Z,0.07
2023-12-22T13:05:31.296Z,0.02
2023-12-22T13:08:15.383Z,0.06
2023-12-22T13:10:48.691Z,0.07
2023-12-22T13:13:22.415Z,-0.02
2023-12-22T13:15:55.733Z,0.00
2023-12-22T13:18:30.318Z,0.00
2023-12-22T13:21:05.021Z,-0.05
2023-12-22T13:23:38.994Z,0.01
2023-12-22T13:26:22.658Z,-0.03
2023-12-22T13:29:02.096Z,0.05
2023-12-22T13:31:38.679Z,0.06
2023-12-22T13:34:16.354Z,0.07
2023-12-22T13:36:50.381Z,0.15
2023-12-22T13:39:25.220Z,0.23
2023-12-22T13:41:58.791Z,0.22
2023-12-22T13:44:32.674Z,0.11
2023-12-22T13:47:08.890Z,0.07
2023-12-22T13:49:43.201Z,0.08
2023-12-22T13:52:30.039Z,0.08
2023-12-22T13:55:04.294Z,0.12
2023-12-22T13:57:38.005Z,0.11
2023-12-22T14:00:32.320Z,0.08
2023-12-22T14:03:06.500Z,0.11
2023-12-22T14:05:40.312Z,0.10
2023-12-22T14:08:14.072Z,0.11
2023-12-22T14:10:51.066Z,0.20
2023-12-22T14:13:24.710Z,0.20
2023-12-22T14:15:58.644Z,0.23
2023-12-22T14:18:32.526Z,0.22
2023-12-22T14:21:07.060Z,0.31
2023-12-22T14:23:40.967Z,0.32
2023-12-22T14:26:14.741Z,0.29
2023-12-22T14:28:50.123Z,0.31
2023-12-22T14:31:24.113Z,0.30
2023-12-22T14:33:59.629Z,0.31
2023-12-22T14:36:33.638Z,0.45
2023-12-22T14:39:09.550Z,0.40
2023-12-22T14:41:45.734Z,0.36
2023-12-22T14:44:21.342Z,0.41
2023-12-22T14:46:56.634Z,0.43
2023-12-22T14:49:32.081Z,0.39
2023-12-22T14:52:08.199Z,0.36
2023-12-22T14:54:44.190Z,0.32
2023-12-22T14:57:19.723Z,0.33
2023-12-22T14:59:54.963Z,0.31
2023-12-22T15:02:31.005Z,0.24
2023-12-22T15:05:06.563Z,0.15
2023-12-22T15:07:41.175Z,0.17
2023-12-22T15:10:16.703Z,0.22
2023-12-22T15:12:51.687Z,0.22
2023-12-22T15:15:26.331Z,0.18
2023-12-22T15:18:00.840Z,0.19
2023-12-22T15:20:35.121Z,0.20
2023-12-22T15:23:09.373Z,0.13
2023-12-22T15:25:43.412Z,0.09
2023-12-22T15:28:17.178Z,0.13
2023-12-22T15:30:51.672Z,0.10
2023-12-22T15:33:25.492Z,0.12
2023-12-22T15:35:59.617Z,0.17
2023-12-22T15:38:33.661Z,0.09
2023-12-22T15:41:08.131Z,0.07
2023-12-22T15:43:42.282Z,0.10
2023-12-22T15:46:16.561Z,0.07
2023-12-22T15:48:50.531Z,0.05
2023-12-22T15:51:24.508Z,0.07
2023-12-22T15:53:58.159Z,0.11
2023-12-22T15:56:31.903Z,0.11
2023-12-22T15:59:05.555Z,0.08
2023-12-22T16:01:45.557Z,0.12
2023-12-22T16:04:19.474Z,0.13
2023-12-22T16:06:53.649Z,0.19
2023-12-22T16:09:27.174Z,0.18
2023-12-22T16:12:01.162Z,0.21
2023-12-22T16:14:37.690Z,0.24
2023-12-22T16:17:12.965Z,0.20
2023-12-22T16:19:47.618Z,0.28
2023-12-22T16:22:21.940Z,0.30
2023-12-22T16:24:57.483Z,0.40
2023-12-22T16:27:33.794Z,0.39
2023-12-22T16:30:10.712Z,0.45
2023-12-22T16:32:44.982Z,0.50
2023-12-22T16:35:19.216Z,0.59
2023-12-22T16:37:52.945Z,0.68
2023-12-22T16:40:26.687Z,0.74
2023-12-22T16:43:00.741Z,0.67
2023-12-22T16:45:35.090Z,0.72
2023-12-22T16:48:10.280Z,0.75
2023-12-22T16:50:44.135Z,0.80
2023-12-22T16:53:17.724Z,0.85
2023-12-22T16:55:51.451Z,0.88
2023-12-22T16:58:25.196Z,0.86
2023-12-22T17:01:17.631Z,0.90
2023-12-22T17:03:36.216Z,0.98
2023-12-22T17:06:10.207Z,1.02
2023-12-22T17:08:45.242Z,0.99
2023-12-22T17:11:19.004Z,0.96
2023-12-22T17:13:52.752Z,0.93
2023-12-22T17:16:26.278Z,0.97
2023-12-22T17:19:00.007Z,0.99
2023-12-22T17:21:33.947Z,1.01
2023-12-22T17:24:08.978Z,1.00
2023-12-22T17:26:43.683Z,1.02
2023-12-22T17:29:17.152Z,1.02
2023-12-22T17:31:52.682Z,1.06
2023-12-22T17:34:27.295Z,1.06
2023-12-22T17:37:01.128Z,1.10
2023-12-22T17:39:35.599Z,1.09
2023-12-22T17:42:10.220Z,1.06
2023-12-22T17:44:43.899Z,1.03
2023-12-22T17:47:17.566Z,1.08
2023-12-22T17:49:51.198Z,1.11
2023-12-22T17:52:25.781Z,1.18
2023-12-22T17:54:59.153Z,1.09
2023-12-22T17:57:32.940Z,1.15
2023-12-22T18:00:08.351Z,1.06
2023-12-22T18:02:42.047Z,1.05
2023-12-22T18:05:16.092Z,1.09
2023-12-22T18:07:50.246Z,1.21
2023-12-22T18:10:24.149Z,1.11
2023-12-22T18:12:57.441Z,1.19
2023-12-22T18:15:31.410Z,1.19
2023-12-22T18:18:07.977Z,1.16
2023-12-22T18:20:43.278Z,1.18
2023-12-22T18:23:18.050Z,1.17
2023-12-22T18:25:52.705Z,1.14
2023-12-22T18:28:26.939Z,1.13
2023-12-22T18:31:00.523Z,1.13
2023-12-22T18:33:36.133Z,1.13
2023-12-22T18:36:11.860Z,1.20
2023-12-22T18:38:46.560Z,1.15
2023-12-22T18:41:20.174Z,1.11
2023-12-22T18:43:54.698Z,1.16
2023-12-22T18:46:30.438Z,1.18
2023-12-22T18:49:04.724Z,1.19
2023-12-22T18:51:38.328Z,1.25
2023-12-22T18:54:11.968Z,1.17
2023-12-22T18:56:47.253Z,1.23
2023-12-22T18:59:21.074Z,1.25
2023-12-22T19:02:08.354Z,1.25
2023-12-22T19:04:30.550Z,1.23
2023-12-22T19:07:04.448Z,1.28
2023-12-22T19:09:50.899Z,1.24
2023-12-22T19:12:24.621Z,1.21
2023-12-22T19:14:58.272Z,1.23
2023-12-22T19:17:32.957Z,1.25
2023-12-22T19:20:08.294Z,1.25
2023-12-22T19:22:42.153Z,1.25
2023-12-22T19:25:15.918Z,1.23
2023-12-22T19:27:51.300Z,1.29
2023-12-22T19:30:24.890Z,1.28
2023-12-22T19:32:58.741Z,1.25
2023-12-22T19:35:32.492Z,1.25
2023-12-22T19:38:07.461Z,1.21
2023-12-22T19:40:42.376Z,1.22
2023-12-22T19:43:16.108Z,1.19
2023-12-22T19:45:50.002Z,1.14
2023-12-22T19:48:23.894Z,1.15
2023-12-22T19:50:57.993Z,1.18
2023-12-22T19:53:31.569Z,1.15
2023-12-22T19:56:05.600Z,1.17
2023-12-22T19:58:39.184Z,1.11
2023-12-22T20:01:12.698Z,1.15
2023-12-22T20:03:46.692Z,1.18
2023-12-22T20:06:20.202Z,1.18
2023-12-22T20:08:54.138Z,1.18
2023-12-22T20:11:28.393Z,1.13
2023-12-22T20:14:02.326Z,1.11
2023-12-22T20:16:36.881Z,1.14
2023-12-22T20:19:10.883Z,1.17
2023-12-22T20:21:44.916Z,1.14
2023-12-22T20:24:18.452Z,1.15
2023-12-22T20:26:52.056Z,1.18
2023-12-22T20:29:26.032Z,1.15
2023-12-22T20:32:00.310Z,1.18
2023-12-22T20:34:34.078Z,1.24
2023-12-22T20:37:07.938Z,1.20
2023-12-22T20:39:43.979Z,1.23
2023-12-22T20:42:17.728Z,1.24
2023-12-22T20:44:52.049Z,1.23
2023-12-22T20:47:25.578Z,1.25
2023-12-22T20:49:59.034Z,1.25
2023-12-22T20:52:35.600Z,1.27
2023-12-22T20:55:10.855Z,1.28
2023-12-22T20:57:46.234Z,1.30
2023-12-22T21:00:20.556Z,1.28
2023-12-22T21:02:54.502Z,1.31
2023-12-22T21:05:28.621Z,1.34
2023-12-22T21:08:02.586Z,1.33
2023-12-22T21:10:38.014Z,1.37
2023-12-22T21:13:11.975Z,1.41
2023-12-22T21:15:46.122Z,1.36
2023-12-22T21:18:19.932Z,1.37
2023-12-22T21:20:53.885Z,1.35
2023-12-22T21:23:28.032Z,1.40
2023-12-22T21:26:01.691Z,1.37
2023-12-22T21:28:35.496Z,1.34
2023-12-22T21:31:10.933Z,1.34
2023-12-22T21:33:44.923Z,1.35
2023-12-22T21:36:25.199Z,1.34
2023-12-22T21:38:59.009Z,1.34
2023-12-22T21:41:33.388Z,1.36
2023-12-22T21:44:06.990Z,1.34
2023-12-22T21:46:46.643Z,1.35
2023-12-22T21:49:20.651Z,1.41
2023-12-22T21:51:54.139Z,1.42
2023-12-22T21:54:28.133Z,1.42
2023-12-22T21:57:01.920Z,1.45
2023-12-22T21:59:35.627Z,1.50
2023-12-22T22:02:09.185Z,1.47
2023-12-22T22:04:43.939Z,1.50
2023-12-22T22:07:18.829Z,1.46
2023-12-22T22:09:52.357Z,1.42
2023-12-22T22:12:25.957Z,1.43
2023-12-22T22:14:59.476Z,1.40
2023-12-22T22:17:35.530Z,1.42
2023-12-22T22:20:12.256Z,1.41
2023-12-22T22:22:45.882Z,1.39
2023-12-22T22:25:19.736Z,1.36
2023-12-22T22:27:53.778Z,1.34
2023-12-22T22:30:27.778Z,1.30
2023-12-22T22:33:03.113Z,1.37
2023-12-22T22:35:37.140Z,1.36
2023-12-22T22:38:11.785Z,1.39
2023-12-22T22:40:45.570Z,1.37
2023-12-22T22:43:19.502Z,1.36
2023-12-22T22:45:53.336Z,1.34
2023-12-22T22:48:27.448Z,1.32
2023-12-22T22:51:01.668Z,1.32
2023-12-22T22:53:35.159Z,1.28
2023-12-22T22:56:09.839Z,1.28
2023-12-22T22:58:45.650Z,1.28
2023-12-22T23:01:19.847Z,1.29
2023-12-22T23:04:00.493Z,1.31
2023-12-22T23:06:29.600Z,1.35
2023-12-22T23:09:03.954Z,1.33
2023-12-22T23:11:37.631Z,1.32
2023-12-22T23:14:11.411Z,1.30
2023-12-22T23:16:45.023Z,1.35
2023-12-22T23:19:18.796Z,1.32
2023-12-22T23:21:52.551Z,1.36
2023-12-22T23:24:26.292Z,1.37
2023-12-22T23:26:59.888Z,1.40
2023-12-22T23:29:33.439Z,1.40
2023-12-22T23:32:08.961Z,1.41
2023-12-22T23:34:42.663Z,1.37
2023-12-22T23:37:16.252Z,1.38
2023-12-22T23:39:50.846Z,1.41
2023-12-22T23:42:24.458Z,1.39
2023-12-22T23:44:57.979Z,1.44
2023-12-22T23:47:33.169Z,1.43
2023-12-22T23:50:08.699Z,1.41
2023-12-22T23:52:42.261Z,1.41
2023-12-22T23:55:16.588Z,1.42
2023-12-22T23:57:50.659Z,1.39
